createdAt,value
2023-04-30T00:00:22.154Z,82.12
2023-04-30T00:03:25.150Z,82.11
2023-04-30T00:06:28.529Z,80.88
2023-04-30T00:09:31.120Z,81.88
2023-04-30T00:12:33.639Z,82.47
2023-04-30T00:15:36.625Z,81.95
2023-04-30T00:18:39.624Z,81.94
2023-04-30T00:21:42.438Z,82.05
2023-04-30T00:24:44.893Z,80.94
2023-04-30T00:27:47.489Z,81.46
2023-04-30T00:30:49.893Z,81.52
2023-04-30T00:33:52.319Z,81.64
2023-04-30T00:36:54.852Z,81.54
2023-04-30T00:39:57.386Z,82.15
2023-04-30T00:42:59.997Z,81.72
2023-04-30T00:46:03.932Z,82.10
2023-04-30T00:49:06.726Z,81.71
2023-04-30T00:52:09.220Z,82.54
2023-04-30T00:55:13.176Z,82.05
2023-04-30T00:58:16.011Z,82.65
2023-04-30T01:01:18.793Z,83.22
2023-04-30T01:04:21.959Z,83.15
2023-04-30T01:07:28.361Z,84.21
2023-04-30T01:10:42.253Z,83.74
2023-04-30T01:13:58.473Z,83.90
2023-04-30T01:17:17.674Z,84.03
2023-04-30T01:20:20.675Z,84.52
2023-04-30T01:24:00.635Z,85.41
2023-04-30T01:27:09.976Z,85.94
2023-04-30T01:30:13.937Z,85.50
2023-04-30T01:33:16.419Z,86.08
2023-04-30T01:36:57.524Z,86.36
2023-04-30T01:40:24.205Z,86.37
2023-04-30T01:43:38.721Z,85.32
2023-04-30T01:46:46.792Z,85.09
2023-04-30T01:50:08.757Z,85.40
2023-04-30T01:53:17.077Z,85.71
2023-04-30T01:56:34.065Z,85.56
2023-04-30T01:59:39.707Z,85.76
2023-04-30T02:02:42.664Z,86.09
2023-04-30T02:05:45.262Z,85.71
2023-04-30T02:08:48.371Z,85.81
2023-04-30T02:11:51.341Z,85.69
2023-04-30T02:14:53.805Z,85.04
2023-04-30T02:17:56.374Z,85.53
2023-04-30T02:20:58.878Z,85.28
2023-04-30T02:24:01.667Z,85.01
2023-04-30T02:27:04.073Z,85.04
2023-04-30T02:30:07.148Z,85.36
2023-04-30T02:33:12.392Z,85.95
2023-04-30T02:36:14.843Z,85.37
2023-04-30T02:39:17.530Z,85.81
2023-04-30T02:42:20.260Z,85.76
2023-04-30T02:45:22.704Z,86.89
2023-04-30T02:48:25.350Z,86.44
2023-04-30T02:51:28.339Z,87.70
2023-04-30T02:54:30.854Z,87.41
2023-04-30T02:57:33.274Z,87.08
2023-04-30T03:00:35.777Z,87.57
2023-04-30T03:03:38.312Z,87.58
2023-04-30T03:06:40.920Z,87.71
2023-04-30T03:09:44.006Z,88.10
2023-04-30T03:12:46.650Z,88.54
2023-04-30T03:15:49.057Z,89.43
2023-04-30T03:18:51.647Z,89.81
2023-04-30T03:21:54.891Z,88.62
2023-04-30T03:24:57.324Z,88.92
2023-04-30T03:27:59.862Z,89.07
2023-04-30T03:31:05.440Z,89.70
2023-04-30T03:34:08.181Z,89.50
2023-04-30T03:37:10.702Z,89.40
2023-04-30T03:40:13.268Z,88.91
2023-04-30T03:43:15.832Z,89.01
2023-04-30T03:46:18.864Z,88.99
2023-04-30T03:49:21.922Z,89.49
2023-04-30T03:52:24.449Z,89.12
2023-04-30T03:55:27.075Z,88.66
2023-04-30T03:58:30.115Z,88.72
2023-04-30T04:01:32.835Z,89.45
2023-04-30T04:04:35.686Z,89.07
2023-04-30T04:07:38.146Z,89.25
2023-04-30T04:10:41.103Z,88.19
2023-04-30T04:13:44.697Z,89.22
2023-04-30T04:16:48.628Z,88.92
2023-04-30T04:19:51.076Z,89.36
2023-04-30T04:22:54.054Z,88.48
2023-04-30T04:25:57.601Z,88.35
2023-04-30T04:29:00.552Z,88.61
2023-04-30T04:32:04.677Z,87.33
2023-04-30T04:35:08.450Z,86.55
2023-04-30T04:38:10.865Z,85.58
2023-04-30T04:41:13.258Z,85.42
2023-04-30T04:44:16.043Z,84.92
2023-04-30T04:47:21.911Z,84.58
2023-04-30T04:50:24.674Z,84.00
2023-04-30T04:53:27.170Z,82.87
2023-04-30T04:56:29.581Z,82.79
2023-04-30T04:59:32.191Z,81.76
2023-04-30T05:02:34.711Z,81.36
2023-04-30T05:05:37.090Z,80.25
2023-04-30T05:08:39.545Z,79.37
2023-04-30T05:11:43.844Z,81.33
2023-04-30T05:14:47.683Z,80.53
2023-04-30T05:17:50.094Z,80.60
2023-04-30T05:20:52.498Z,77.31
2023-04-30T05:23:55.431Z,78.52
2023-04-30T05:26:58.013Z,77.96
2023-04-30T05:30:00.886Z,77.92
2023-04-30T05:33:03.758Z,77.76
2023-04-30T05:36:06.410Z,76.91
2023-04-30T05:39:09.451Z,74.92
2023-04-30T05:42:11.864Z,72.81
2023-04-30T05:45:17.202Z,72.22
2023-04-30T05:48:19.987Z,71.18
2023-04-30T05:51:22.491Z,68.84
2023-04-30T05:54:25.172Z,67.80
2023-04-30T05:57:27.597Z,66.82
2023-04-30T06:00:31.242Z,66.79
2023-04-30T06:03:33.737Z,66.93
2023-04-30T06:06:36.338Z,66.26
2023-04-30T06:09:38.841Z,67.33
2023-04-30T06:12:41.325Z,67.70
2023-04-30T06:15:43.734Z,66.87
2023-04-30T06:18:46.115Z,64.70
2023-04-30T06:21:48.702Z,66.07
2023-04-30T06:24:51.092Z,67.41
2023-04-30T06:27:54.176Z,66.58
2023-04-30T06:30:56.896Z,64.79
2023-04-30T06:33:59.703Z,66.86
2023-04-30T06:37:02.053Z,65.75
2023-04-30T06:40:06.229Z,64.09
2023-04-30T06:43:08.639Z,64.71
2023-04-30T06:46:11.177Z,68.11
2023-04-30T06:49:13.813Z,69.92
2023-04-30T06:52:16.217Z,69.36
2023-04-30T06:55:19.050Z,70.78
2023-04-30T06:58:21.510Z,70.66
2023-04-30T07:01:23.928Z,66.24
2023-04-30T07:04:27.212Z,63.80
2023-04-30T07:07:29.698Z,64.12
2023-04-30T07:10:32.259Z,63.56
2023-04-30T07:13:34.717Z,63.35
2023-04-30T07:16:37.179Z,63.89
2023-04-30T07:19:39.777Z,64.07
2023-04-30T07:22:46.513Z,63.23
2023-04-30T07:25:49.366Z,63.76
2023-04-30T07:28:51.930Z,61.74
2023-04-30T07:31:54.403Z,60.02
2023-04-30T07:34:57.155Z,58.64
2023-04-30T07:37:59.527Z,56.26
2023-04-30T07:41:02.231Z,54.94
2023-04-30T07:44:04.954Z,53.05
2023-04-30T07:47:07.688Z,52.14
2023-04-30T07:50:10.505Z,50.95
2023-04-30T07:53:13.010Z,51.58
2023-04-30T07:56:15.983Z,50.99
2023-04-30T07:59:18.789Z,51.51
2023-04-30T08:02:21.822Z,51.66
2023-04-30T08:05:24.543Z,50.88
2023-04-30T08:08:26.989Z,51.37
2023-04-30T08:11:29.698Z,52.49
2023-04-30T08:14:33.123Z,53.77
2023-04-30T08:17:36.018Z,54.42
2023-04-30T08:20:38.800Z,56.35
2023-04-30T08:23:41.312Z,54.94
2023-04-30T08:26:43.723Z,52.91
2023-04-30T08:29:46.247Z,52.54
2023-04-30T08:32:49.428Z,52.37
2023-04-30T08:35:51.988Z,50.99
2023-04-30T08:38:54.635Z,48.97
2023-04-30T08:41:57.876Z,49.33
2023-04-30T08:45:01.628Z,50.60
2023-04-30T08:48:05.428Z,51.17
2023-04-30T08:51:08.019Z,54.12
2023-04-30T08:54:13.038Z,55.15
2023-04-30T08:57:15.610Z,54.20
2023-04-30T09:00:18.347Z,53.23
2023-04-30T09:03:23.809Z,55.36
2023-04-30T09:06:27.272Z,55.66
2023-04-30T09:09:31.763Z,54.74
2023-04-30T09:12:35.290Z,55.33
2023-04-30T09:15:41.685Z,55.17
2023-04-30T09:18:44.318Z,56.80
2023-04-30T09:21:47.058Z,55.43
2023-04-30T09:24:51.028Z,56.21
2023-04-30T09:28:12.796Z,57.50
2023-04-30T09:31:22.176Z,56.86
2023-04-30T09:34:35.732Z,56.58
2023-04-30T09:37:38.702Z,58.34
2023-04-30T09:40:42.688Z,57.24
2023-04-30T09:43:45.987Z,58.15
2023-04-30T09:46:50.918Z,58.68
2023-04-30T09:49:53.725Z,58.18
2023-04-30T09:53:06.577Z,59.09
2023-04-30T09:56:12.118Z,60.39
2023-04-30T09:59:16.228Z,62.11
2023-04-30T10:02:20.251Z,61.65
2023-04-30T10:05:23.079Z,60.77
2023-04-30T10:08:31.841Z,59.76
2023-04-30T10:11:37.659Z,58.03
2023-04-30T10:14:45.716Z,58.02
2023-04-30T10:18:02.343Z,57.43
2023-04-30T10:21:12.607Z,55.20
2023-04-30T10:24:20.673Z,54.78
2023-04-30T10:27:23.293Z,54.57
2023-04-30T10:30:26.254Z,55.43
2023-04-30T10:33:41.898Z,55.22
2023-04-30T10:36:44.848Z,52.44
2023-04-30T10:39:47.445Z,52.09
2023-04-30T10:42:54.632Z,49.79
2023-04-30T10:45:58.720Z,49.70
2023-04-30T10:49:01.432Z,48.85
2023-04-30T10:52:05.048Z,48.28
2023-04-30T10:55:09.092Z,47.85
2023-04-30T10:58:29.973Z,47.32
2023-04-30T11:01:57.249Z,46.65
2023-04-30T11:05:11.598Z,47.86
2023-04-30T11:08:14.338Z,44.48
2023-04-30T11:11:22.991Z,44.52
2023-04-30T11:14:25.496Z,41.89
2023-04-30T11:17:28.258Z,41.09
2023-04-30T11:20:30.784Z,43.03
2023-04-30T11:27:05.591Z,44.56
2023-04-30T11:30:18.669Z,45.09
2023-04-30T11:33:22.893Z,45.31
2023-04-30T11:36:26.795Z,42.07
2023-04-30T11:39:32.486Z,42.53
2023-04-30T11:42:35.597Z,40.74
2023-04-30T11:45:39.307Z,41.24
2023-04-30T11:48:44.158Z,40.45
2023-04-30T11:51:50.777Z,43.27
2023-04-30T11:54:55.592Z,39.03
2023-04-30T11:57:59.929Z,38.11
2023-04-30T12:01:02.816Z,37.27
2023-04-30T12:04:06.320Z,38.29
2023-04-30T12:07:09.754Z,39.79
2023-04-30T12:10:12.711Z,39.58
2023-04-30T12:13:16.680Z,38.08
2023-04-30T12:16:20.002Z,36.90
2023-04-30T12:19:25.365Z,35.84
2023-04-30T12:22:28.738Z,35.68
2023-04-30T12:25:31.140Z,34.87
2023-04-30T12:28:34.954Z,33.89
2023-04-30T12:31:38.631Z,35.90
2023-04-30T12:34:42.008Z,35.81
2023-04-30T12:37:45.844Z,36.10
2023-04-30T12:40:51.354Z,36.71
2023-04-30T12:44:14.191Z,36.58
2023-04-30T12:47:16.910Z,37.45
2023-04-30T12:50:22.639Z,36.25
2023-04-30T12:53:25.339Z,37.53
2023-04-30T12:56:27.775Z,36.34
2023-04-30T12:59:31.652Z,37.02
2023-04-30T13:02:34.497Z,35.93
2023-04-30T13:05:37.070Z,36.37
2023-04-30T13:08:54.081Z,35.49
2023-04-30T13:12:01.220Z,38.18
2023-04-30T13:15:03.996Z,38.86
2023-04-30T13:18:09.369Z,41.75
2023-04-30T13:21:12.748Z,41.83
2023-04-30T13:24:16.077Z,42.95
2023-04-30T13:27:18.545Z,44.74
2023-04-30T13:30:21.037Z,42.93
2023-04-30T13:33:23.529Z,40.97
2023-04-30T13:36:25.867Z,41.36
2023-04-30T13:39:28.541Z,40.04
2023-04-30T13:42:31.929Z,39.76
2023-04-30T13:45:34.433Z,40.98
2023-04-30T13:48:36.848Z,40.03
2023-04-30T13:51:39.372Z,40.51
2023-04-30T13:54:42.086Z,40.18
2023-04-30T13:57:44.505Z,40.81
2023-04-30T14:00:47.092Z,40.35
2023-04-30T14:03:49.636Z,41.88
2023-04-30T14:06:52.875Z,42.82
2023-04-30T14:09:55.446Z,43.49
2023-04-30T14:12:58.196Z,41.39
2023-04-30T14:16:00.690Z,41.79
2023-04-30T14:19:03.239Z,43.13
2023-04-30T14:22:05.832Z,42.70
2023-04-30T14:25:09.554Z,43.71
2023-04-30T14:28:12.062Z,43.92
2023-04-30T14:31:14.771Z,45.54
2023-04-30T14:34:17.608Z,45.34
2023-04-30T14:37:20.447Z,46.16
2023-04-30T14:40:23.445Z,45.12
2023-04-30T14:43:25.951Z,46.98
2023-04-30T14:46:28.612Z,47.13
2023-04-30T14:49:31.396Z,47.63
2023-04-30T14:52:33.761Z,46.91
2023-04-30T14:55:36.231Z,47.73
2023-04-30T14:58:38.701Z,49.16
2023-04-30T15:01:42.279Z,48.96
2023-04-30T15:04:46.353Z,49.14
2023-04-30T15:07:48.755Z,48.80
2023-04-30T15:10:51.182Z,48.20
2023-04-30T15:13:55.159Z,49.35
2023-04-30T15:16:57.665Z,48.32
2023-04-30T15:20:02.303Z,48.69
2023-04-30T15:23:05.525Z,50.23
2023-04-30T15:26:08.367Z,50.39
2023-04-30T15:29:11.229Z,49.73
2023-04-30T15:32:14.002Z,50.26
2023-04-30T15:35:16.513Z,50.39
2023-04-30T15:38:19.185Z,50.17
2023-04-30T15:41:22.211Z,50.19
2023-04-30T15:44:24.633Z,49.59
2023-04-30T15:47:27.145Z,50.13
2023-04-30T15:50:31.008Z,50.15
2023-04-30T15:53:33.850Z,50.26
2023-04-30T15:56:36.614Z,50.14
2023-04-30T15:59:39.046Z,50.63
2023-04-30T16:02:41.615Z,50.36
2023-04-30T16:05:44.125Z,50.72
2023-04-30T16:08:47.001Z,50.43
2023-04-30T16:11:50.844Z,50.34
2023-04-30T16:14:53.696Z,49.83
2023-04-30T16:17:58.861Z,49.99
2023-04-30T16:21:01.648Z,50.86
2023-04-30T16:24:07.793Z,50.55
2023-04-30T16:27:10.394Z,51.06
2023-04-30T16:30:13.154Z,50.02
2023-04-30T16:33:16.354Z,50.40
2023-04-30T16:36:18.967Z,50.35
2023-04-30T16:39:21.347Z,49.99
2023-04-30T16:42:34.896Z,51.21
2023-04-30T16:45:37.556Z,51.74
2023-04-30T16:48:40.281Z,51.42
2023-04-30T16:51:42.657Z,51.37
2023-04-30T16:54:45.474Z,51.19
2023-04-30T16:57:47.986Z,51.91
2023-04-30T17:00:55.944Z,52.54
2023-04-30T17:03:58.572Z,52.05
2023-04-30T17:07:01.081Z,51.73
2023-04-30T17:10:04.710Z,51.25
2023-04-30T17:13:07.170Z,51.94
2023-04-30T17:16:09.753Z,52.06
2023-04-30T17:19:12.236Z,52.01
2023-04-30T17:22:19.425Z,51.90
2023-04-30T17:25:22.446Z,51.82
2023-04-30T17:28:26.082Z,52.74
2023-04-30T17:31:30.646Z,52.33
2023-04-30T17:34:33.458Z,52.54
2023-04-30T17:37:36.621Z,52.67
2023-04-30T17:40:39.187Z,52.13
2023-04-30T17:43:41.769Z,52.56
2023-04-30T17:46:45.557Z,52.29
2023-04-30T17:49:48.317Z,52.78
2023-04-30T17:52:51.384Z,53.18
2023-04-30T17:55:53.889Z,53.81
2023-04-30T17:58:56.601Z,53.75
2023-04-30T18:01:59.713Z,53.86
2023-04-30T18:05:02.593Z,53.28
2023-04-30T18:08:06.399Z,54.09
2023-04-30T18:11:09.517Z,54.04
2023-04-30T18:14:12.664Z,54.11
2023-04-30T18:17:15.348Z,53.69
2023-04-30T18:20:18.257Z,53.91
2023-04-30T18:23:22.152Z,53.43
2023-04-30T18:26:25.048Z,54.02
2023-04-30T18:29:27.750Z,54.06
2023-04-30T18:32:30.449Z,53.56
2023-04-30T18:35:34.208Z,54.14
2023-04-30T18:38:38.772Z,54.44
2023-04-30T18:41:41.280Z,54.22
2023-04-30T18:44:43.845Z,53.58
2023-04-30T18:47:46.436Z,53.92
2023-04-30T18:50:49.947Z,53.72
2023-04-30T18:53:53.046Z,52.82
2023-04-30T18:56:55.418Z,52.73
2023-04-30T18:59:58.215Z,52.90
2023-04-30T19:03:01.202Z,52.47
2023-04-30T19:06:04.773Z,53.93
2023-04-30T19:09:07.314Z,53.39
2023-04-30T19:12:10.308Z,52.37
2023-04-30T19:15:15.048Z,52.33
2023-04-30T19:18:18.847Z,53.44
2023-04-30T19:21:21.466Z,53.67
2023-04-30T19:24:25.249Z,53.52
2023-04-30T19:27:28.096Z,55.13
2023-04-30T19:30:32.387Z,54.83
2023-04-30T19:33:39.208Z,58.18
2023-04-30T19:36:43.864Z,61.24
2023-04-30T19:39:46.546Z,62.33
2023-04-30T19:42:49.074Z,62.06
2023-04-30T19:45:53.807Z,62.77
2023-04-30T19:48:56.487Z,63.62
2023-04-30T19:51:59.341Z,62.95
2023-04-30T19:55:02.332Z,57.10
2023-04-30T19:58:05.262Z,55.33
2023-04-30T20:01:08.880Z,60.82
2023-04-30T20:04:11.845Z,62.08
2023-04-30T20:07:14.619Z,60.15
2023-04-30T20:10:17.399Z,54.57
2023-04-30T20:13:21.064Z,53.68
2023-04-30T20:16:23.920Z,53.45
2023-04-30T20:19:26.672Z,53.29
2023-04-30T20:22:29.393Z,56.15
2023-04-30T20:25:31.849Z,52.97
2023-04-30T20:28:34.800Z,52.57
2023-04-30T20:31:37.825Z,51.59
2023-04-30T20:34:41.725Z,50.95
2023-04-30T20:37:44.292Z,52.48
2023-04-30T20:40:47.192Z,52.13
2023-04-30T20:43:52.091Z,50.56
2023-04-30T20:46:54.890Z,51.44
2023-04-30T20:49:57.787Z,51.71
2023-04-30T20:53:00.823Z,51.91
2023-04-30T20:56:03.714Z,51.56
2023-04-30T20:59:06.162Z,51.54
2023-04-30T21:02:10.328Z,56.00
2023-04-30T21:05:13.206Z,58.20
2023-04-30T21:08:15.577Z,59.10
2023-04-30T21:11:19.386Z,59.39
2023-04-30T21:14:21.999Z,59.31
2023-04-30T21:17:24.422Z,60.11
2023-04-30T21:20:27.202Z,59.13
2023-04-30T21:23:30.056Z,60.34
2023-04-30T21:26:32.767Z,61.48
2023-04-30T21:29:35.483Z,61.10
2023-04-30T21:32:38.298Z,59.92
2023-04-30T21:35:40.866Z,58.75
2023-04-30T21:38:43.281Z,59.52
2023-04-30T21:41:45.882Z,58.82
2023-04-30T21:44:48.580Z,58.15
2023-04-30T21:47:51.130Z,59.36
2023-04-30T21:50:53.532Z,57.38
2023-04-30T21:53:57.396Z,57.12
2023-04-30T21:57:01.148Z,56.96
2023-04-30T22:00:07.281Z,57.30
2023-04-30T22:03:11.706Z,56.84
2023-04-30T22:06:14.247Z,56.20
2023-04-30T22:09:16.923Z,56.60
2023-04-30T22:12:21.313Z,55.91
2023-04-30T22:15:26.025Z,55.23
2023-04-30T22:18:31.758Z,54.83
2023-04-30T22:21:34.402Z,55.01
2023-04-30T22:24:37.196Z,56.00
2023-04-30T22:27:39.550Z,55.37
2023-04-30T22:30:42.036Z,55.26
2023-04-30T22:33:44.838Z,55.21
2023-04-30T22:36:47.361Z,55.84
2023-04-30T22:39:49.749Z,55.57
2023-04-30T22:42:52.355Z,55.70
2023-04-30T22:45:55.215Z,56.06
2023-04-30T22:48:57.704Z,55.88
2023-04-30T22:52:00.795Z,56.03
2023-04-30T22:55:05.544Z,56.32
2023-04-30T22:58:07.957Z,55.52
2023-04-30T23:01:10.436Z,57.14
2023-04-30T23:04:13.747Z,56.47
2023-04-30T23:07:16.659Z,56.55
2023-04-30T23:10:19.178Z,56.23
2023-04-30T23:13:21.701Z,56.79
2023-04-30T23:16:24.167Z,55.85
2023-04-30T23:19:26.851Z,55.51
2023-04-30T23:22:29.321Z,56.38
2023-04-30T23:25:32.805Z,56.11
2023-04-30T23:28:36.928Z,55.74
2023-04-30T23:31:40.155Z,54.66
2023-04-30T23:34:42.600Z,55.52
2023-04-30T23:37:45.364Z,54.85
2023-04-30T23:40:48.138Z,55.05
2023-04-30T23:43:51.064Z,54.29
2023-04-30T23:46:55.680Z,54.11
2023-04-30T23:49:58.327Z,54.40
2023-04-30T23:53:00.812Z,54.35
2023-04-30T23:56:03.592Z,53.95
2023-04-30T23:59:06.020Z,54.32
